createdAt,value
2022-12-15T00:02:35.499Z,27.38
2022-12-15T00:05:21.427Z,30.90
2022-12-15T00:08:06.912Z,26.17
2022-12-15T00:10:52.359Z,23.77
2022-12-15T00:13:37.738Z,20.80
2022-12-15T00:16:23.423Z,23.63
2022-12-15T00:19:08.662Z,25.73
2022-12-15T00:21:54.245Z,28.63
2022-12-15T00:24:39.578Z,23.70
2022-12-15T00:27:25.057Z,28.38
2022-12-15T00:30:10.584Z,23.58
2022-12-15T00:32:56.296Z,28.45
2022-12-15T00:35:41.843Z,23.92
2022-12-15T00:38:29.964Z,24.05
2022-12-15T00:40:59.683Z,28.52
2022-12-15T00:43:35.249Z,35.58
2022-12-15T00:46:21.928Z,29.38
2022-12-15T00:48:48.868Z,25.60
2022-12-15T00:51:16.849Z,28.77
2022-12-15T00:54:02.365Z,24.50
2022-12-15T00:56:48.458Z,26.42
2022-12-15T00:59:35.221Z,27.10
2022-12-15T01:02:22.308Z,27.40
2022-12-15T01:05:07.679Z,23.50
2022-12-15T01:07:52.907Z,22.17
2022-12-15T01:10:38.583Z,23.90
2022-12-15T01:13:24.479Z,35.95
2022-12-15T01:16:09.982Z,32.53
2022-12-15T01:18:55.332Z,23.80
2022-12-15T01:21:25.122Z,31.25
2022-12-15T01:23:52.493Z,25.67
2022-12-15T01:26:19.652Z,24.65
2022-12-15T01:28:46.447Z,24.48
2022-12-15T01:31:13.572Z,28.05
2022-12-15T01:33:42.687Z,25.60
2022-12-15T01:36:10.548Z,23.10
2022-12-15T01:38:37.380Z,21.90
2022-12-15T01:41:08.150Z,30.92
2022-12-15T01:43:39.428Z,22.38
2022-12-15T01:46:19.198Z,31.35
2022-12-15T01:48:59.036Z,24.98
2022-12-15T01:51:39.496Z,25.20
2022-12-15T01:54:12.486Z,24.60
2022-12-15T01:56:43.630Z,27.48
2022-12-15T01:59:16.539Z,23.65
2022-12-15T02:01:43.509Z,24.65
2022-12-15T02:04:21.656Z,24.15
2022-12-15T02:06:48.595Z,26.75
2022-12-15T02:09:17.427Z,28.00
2022-12-15T02:11:50.014Z,32.88
2022-12-15T02:14:40.439Z,25.40
2022-12-15T02:17:13.931Z,17.63
2022-12-15T02:20:02.058Z,24.05
2022-12-15T02:22:50.581Z,22.52
2022-12-15T02:25:41.219Z,32.90
2022-12-15T02:28:12.717Z,25.65
2022-12-15T02:30:42.345Z,19.25
2022-12-15T02:33:24.135Z,15.95
2022-12-15T02:35:53.922Z,22.35
2022-12-15T02:38:38.233Z,22.30
2022-12-15T02:41:25.954Z,13.88
2022-12-15T02:43:52.734Z,13.73
2022-12-15T02:46:39.120Z,12.50
2022-12-15T02:49:12.328Z,15.52
2022-12-15T02:52:01.774Z,19.33
2022-12-15T02:54:46.923Z,25.95
2022-12-15T02:57:51.198Z,22.48
2022-12-15T03:00:18.740Z,14.70
2022-12-15T03:02:49.995Z,23.10
2022-12-15T03:05:18.580Z,18.63
2022-12-15T03:07:45.382Z,24.90
2022-12-15T03:10:17.063Z,24.17
2022-12-15T03:12:43.746Z,24.70
2022-12-15T03:15:11.077Z,26.90
2022-12-15T03:17:38.323Z,20.30
2022-12-15T03:20:06.316Z,19.98
2022-12-15T03:22:32.976Z,20.48
2022-12-15T03:24:59.716Z,22.90
2022-12-15T03:27:26.634Z,21.00
2022-12-15T03:29:53.298Z,24.75
2022-12-15T03:32:20.123Z,19.73
2022-12-15T03:34:46.956Z,21.60
2022-12-15T03:37:13.645Z,20.17
2022-12-15T03:39:40.351Z,15.75
2022-12-15T03:42:07.006Z,19.67
2022-12-15T03:44:33.634Z,29.75
2022-12-15T03:47:03.633Z,21.08
2022-12-15T03:49:30.574Z,18.92
2022-12-15T03:51:57.223Z,22.90
2022-12-15T03:54:23.871Z,18.05
2022-12-15T03:56:50.514Z,23.90
2022-12-15T03:59:17.195Z,20.35
2022-12-15T04:01:48.019Z,22.17
2022-12-15T04:04:15.201Z,18.77
2022-12-15T04:06:41.923Z,18.83
2022-12-15T04:09:08.550Z,24.25
2022-12-15T04:11:35.197Z,21.98
2022-12-15T04:14:01.990Z,23.83
2022-12-15T04:16:29.305Z,21.63
2022-12-15T04:19:14.767Z,24.40
2022-12-15T04:21:41.702Z,21.05
2022-12-15T04:24:26.861Z,22.10
2022-12-15T04:27:12.078Z,21.65
2022-12-15T04:29:57.144Z,21.90
2022-12-15T04:32:42.602Z,25.80
2022-12-15T04:35:29.398Z,22.65
2022-12-15T04:38:15.254Z,27.65
2022-12-15T04:41:00.768Z,25.38
2022-12-15T04:43:46.483Z,21.10
2022-12-15T04:46:33.308Z,26.55
2022-12-15T04:49:18.771Z,20.17
2022-12-15T04:52:04.067Z,22.73
2022-12-15T04:54:58.347Z,23.65
2022-12-15T04:57:43.500Z,20.43
2022-12-15T05:00:29.304Z,21.83
2022-12-15T05:06:11.854Z,23.90
2022-12-15T05:08:57.172Z,26.65
2022-12-15T05:11:42.410Z,24.42
2022-12-15T05:14:27.937Z,30.17
2022-12-15T05:17:13.400Z,18.55
2022-12-15T05:19:58.759Z,28.88
2022-12-15T05:22:45.108Z,29.27
2022-12-15T05:25:30.703Z,28.98
2022-12-15T05:28:16.107Z,24.50
2022-12-15T05:31:01.513Z,34.10
2022-12-15T05:33:28.613Z,33.75
2022-12-15T05:35:58.616Z,31.45
2022-12-15T05:38:25.444Z,30.08
2022-12-15T05:40:52.445Z,30.15
2022-12-15T05:43:24.619Z,28.15
2022-12-15T05:45:53.008Z,35.78
2022-12-15T05:48:19.684Z,29.73
2022-12-15T05:50:46.474Z,27.80
2022-12-15T05:53:13.164Z,27.40
2022-12-15T05:55:39.911Z,29.40
2022-12-15T05:58:06.655Z,27.17
2022-12-15T06:00:33.836Z,36.45
2022-12-15T06:03:00.670Z,29.52
2022-12-15T06:05:27.404Z,27.05
2022-12-15T06:07:54.618Z,23.98
2022-12-15T06:10:21.293Z,35.50
2022-12-15T06:12:48.222Z,32.58
2022-12-15T06:15:14.917Z,19.85
2022-12-15T06:17:41.659Z,37.30
2022-12-15T06:20:08.851Z,25.83
2022-12-15T06:22:35.539Z,32.25
2022-12-15T06:25:02.148Z,25.52
2022-12-15T06:27:29.151Z,31.92
2022-12-15T06:29:55.735Z,25.23
2022-12-15T06:32:22.461Z,26.65
2022-12-15T06:34:49.569Z,25.23
2022-12-15T06:37:16.210Z,23.02
2022-12-15T06:39:42.910Z,28.50
2022-12-15T06:42:09.574Z,38.13
2022-12-15T06:44:36.312Z,27.73
2022-12-15T06:47:03.731Z,32.15
2022-12-15T06:49:31.922Z,22.52
2022-12-15T06:51:58.546Z,29.73
2022-12-15T06:54:25.194Z,35.55
2022-12-15T06:56:51.866Z,26.50
2022-12-15T06:59:18.445Z,29.02
2022-12-15T07:01:45.203Z,31.23
2022-12-15T07:04:12.417Z,31.55
2022-12-15T07:06:40.064Z,32.83
2022-12-15T07:09:10.385Z,47.10
2022-12-15T07:11:37.150Z,30.08
2022-12-15T07:14:04.780Z,29.83
2022-12-15T07:16:31.821Z,33.78
2022-12-15T07:18:58.739Z,27.63
2022-12-15T07:21:25.440Z,37.03
2022-12-15T07:23:55.211Z,31.67
2022-12-15T07:26:23.816Z,36.70
2022-12-15T07:28:50.579Z,37.13
2022-12-15T07:31:17.866Z,36.30
2022-12-15T07:33:45.045Z,37.10
2022-12-15T07:36:12.081Z,37.63
2022-12-15T07:38:38.690Z,38.45
2022-12-15T07:41:07.517Z,30.00
2022-12-15T07:43:35.431Z,35.25
2022-12-15T07:46:03.328Z,30.17
2022-12-15T07:48:30.639Z,38.38
2022-12-15T07:51:05.172Z,30.95
2022-12-15T07:53:35.511Z,28.02
2022-12-15T07:56:08.888Z,32.38
2022-12-15T07:58:37.200Z,28.42
2022-12-15T08:01:10.077Z,31.23
2022-12-15T08:03:37.850Z,31.55
2022-12-15T08:06:12.397Z,32.45
2022-12-15T08:08:40.054Z,36.28
2022-12-15T08:11:08.500Z,28.52
2022-12-15T08:14:01.916Z,25.08
2022-12-15T08:16:22.701Z,33.05
2022-12-15T08:18:49.460Z,33.55
2022-12-15T08:21:16.261Z,27.17
2022-12-15T08:23:43.025Z,36.80
2022-12-15T08:26:15.014Z,37.33
2022-12-15T08:28:42.776Z,35.67
2022-12-15T08:31:12.002Z,32.40
2022-12-15T08:33:39.877Z,32.53
2022-12-15T08:36:09.572Z,34.22
2022-12-15T08:38:38.844Z,42.53
2022-12-15T08:41:14.316Z,41.35
2022-12-15T08:43:47.629Z,42.92
2022-12-15T08:48:46.739Z,41.80
2022-12-15T08:51:13.483Z,38.17
2022-12-15T08:53:42.009Z,36.30
2022-12-15T08:56:12.301Z,45.53
2022-12-15T08:58:39.899Z,48.47
2022-12-15T09:01:09.777Z,51.35
2022-12-15T09:03:37.181Z,38.42
2022-12-15T09:06:05.905Z,53.33
2022-12-15T09:08:33.282Z,56.35
2022-12-15T09:11:00.979Z,50.88
2022-12-15T09:13:28.632Z,49.03
2022-12-15T09:16:10.324Z,51.47
2022-12-15T09:18:43.334Z,43.75
2022-12-15T09:21:11.256Z,64.85
2022-12-15T09:23:38.609Z,59.10
2022-12-15T09:26:07.940Z,53.20
2022-12-15T09:28:34.864Z,50.53
2022-12-15T09:31:17.971Z,75.75
2022-12-15T09:33:44.931Z,58.50
2022-12-15T09:36:13.171Z,55.67
2022-12-15T09:38:41.711Z,55.38
2022-12-15T09:41:19.839Z,70.88
2022-12-15T09:44:10.962Z,54.80
2022-12-15T09:46:43.457Z,70.30
2022-12-15T09:49:22.502Z,65.35
2022-12-15T09:51:59.176Z,53.35
2022-12-15T09:54:32.293Z,78.50
2022-12-15T09:57:02.864Z,55.15
2022-12-15T10:00:11.248Z,56.33
2022-12-15T10:02:56.589Z,63.13
2022-12-15T10:06:18.382Z,73.65
2022-12-15T10:08:59.784Z,65.35
2022-12-15T10:12:26.346Z,64.43
2022-12-15T10:15:06.250Z,64.00
2022-12-15T10:17:39.178Z,63.22
2022-12-15T10:20:18.681Z,61.97
2022-12-15T10:22:46.406Z,85.05
2022-12-15T10:25:30.028Z,88.82
2022-12-15T10:28:10.451Z,84.25
2022-12-15T10:30:58.332Z,88.45
2022-12-15T10:33:28.971Z,80.57
2022-12-15T10:35:56.260Z,94.80
2022-12-15T10:38:37.923Z,77.43
2022-12-15T10:41:14.425Z,78.90
2022-12-15T10:43:43.746Z,81.50
2022-12-15T10:46:22.138Z,88.82
2022-12-15T10:49:00.635Z,112.25
2022-12-15T10:51:55.925Z,94.72
2022-12-15T10:54:24.234Z,45.70
2022-12-15T10:56:59.611Z,95.55
2022-12-15T10:59:31.678Z,87.70
2022-12-15T11:02:29.618Z,98.75
2022-12-15T11:05:04.133Z,74.53
2022-12-15T11:07:40.285Z,49.63
2022-12-15T11:10:16.207Z,93.85
2022-12-15T11:12:58.287Z,85.78
2022-12-15T11:15:31.238Z,91.25
2022-12-15T11:18:04.026Z,86.95
2022-12-15T11:20:35.856Z,89.50
2022-12-15T11:23:09.650Z,85.78
2022-12-15T11:25:52.387Z,90.22
2022-12-15T11:28:26.092Z,82.85
2022-12-15T11:31:00.204Z,94.13
2022-12-15T11:33:26.935Z,90.35
2022-12-15T11:36:10.665Z,83.40
2022-12-15T11:38:51.682Z,84.35
2022-12-15T11:41:53.586Z,85.72
2022-12-15T11:44:24.578Z,89.03
2022-12-15T11:47:10.335Z,84.93
2022-12-15T11:50:07.292Z,75.47
2022-12-15T11:52:55.255Z,74.45
2022-12-15T11:55:51.221Z,83.45
2022-12-15T11:58:36.034Z,82.80
2022-12-15T12:01:37.264Z,73.88
2022-12-15T12:04:24.548Z,76.13
2022-12-15T12:07:04.052Z,50.65
2022-12-15T12:09:59.212Z,62.05
2022-12-15T12:12:30.154Z,35.83
2022-12-15T12:15:12.874Z,34.60
2022-12-15T12:17:47.653Z,40.95
2022-12-15T12:20:20.183Z,33.85
2022-12-15T12:23:04.795Z,58.67
2022-12-15T12:25:40.115Z,38.85
2022-12-15T12:28:17.920Z,54.95
2022-12-15T12:30:50.344Z,57.20
2022-12-15T12:33:26.476Z,48.17
2022-12-15T12:36:05.883Z,42.35
2022-12-15T12:38:56.305Z,51.55
2022-12-15T12:41:42.893Z,33.17
2022-12-15T12:44:33.750Z,20.27
2022-12-15T12:47:27.047Z,30.80
2022-12-15T12:50:00.276Z,23.65
2022-12-15T12:52:31.900Z,39.13
2022-12-15T12:55:14.819Z,23.60
2022-12-15T12:57:42.896Z,45.08
2022-12-15T13:00:43.345Z,29.70
2022-12-15T13:03:13.351Z,29.33
2022-12-15T13:05:42.343Z,47.28
2022-12-15T13:08:09.200Z,48.10
2022-12-15T13:10:42.646Z,54.72
2022-12-15T13:13:31.693Z,54.17
2022-12-15T13:16:21.923Z,61.97
2022-12-15T13:19:04.560Z,57.33
2022-12-15T13:21:43.828Z,65.10
2022-12-15T13:24:37.564Z,55.15
2022-12-15T13:27:10.338Z,48.47
2022-12-15T13:29:58.804Z,49.30
2022-12-15T13:32:33.226Z,64.80
2022-12-15T13:35:31.328Z,55.38
2022-12-15T13:38:02.916Z,52.58
2022-12-15T13:40:50.535Z,62.13
2022-12-15T13:43:26.571Z,54.60
2022-12-15T13:46:00.466Z,61.20
2022-12-15T13:48:35.656Z,53.38
2022-12-15T13:51:26.370Z,55.50
2022-12-15T13:53:58.972Z,42.78
2022-12-15T13:56:48.942Z,52.63
2022-12-15T13:59:46.688Z,53.97
2022-12-15T14:02:36.318Z,51.28
2022-12-15T14:05:17.451Z,54.67
2022-12-15T14:07:54.343Z,59.90
2022-12-15T14:10:34.795Z,57.83
2022-12-15T14:13:15.954Z,57.45
2022-12-15T14:15:46.814Z,54.00
2022-12-15T14:18:28.458Z,52.10
2022-12-15T14:20:55.555Z,59.22
2022-12-15T14:23:29.289Z,50.63
2022-12-15T14:26:08.610Z,62.72
2022-12-15T14:28:38.115Z,52.08
2022-12-15T14:31:10.988Z,51.53
2022-12-15T14:33:40.609Z,57.45
2022-12-15T14:36:20.810Z,55.40
2022-12-15T14:39:02.948Z,54.17
2022-12-15T14:41:33.613Z,49.80
2022-12-15T14:44:37.365Z,57.30
2022-12-15T14:47:05.870Z,61.28
2022-12-15T14:49:42.571Z,60.83
2022-12-15T14:52:25.854Z,61.30
2022-12-15T14:54:57.499Z,49.63
2022-12-15T14:57:28.663Z,49.38
2022-12-15T14:59:55.735Z,50.10
2022-12-15T15:02:29.740Z,44.70
2022-12-15T15:05:07.604Z,44.85
2022-12-15T15:07:37.948Z,45.85
2022-12-15T15:10:22.021Z,53.20
2022-12-15T15:12:49.413Z,33.93
2022-12-15T15:15:21.621Z,49.65
2022-12-15T15:17:57.205Z,51.95
2022-12-15T15:20:29.316Z,55.90
2022-12-15T15:23:16.608Z,46.25
2022-12-15T15:25:55.167Z,42.55
2022-12-15T15:28:25.397Z,50.15
2022-12-15T15:31:05.465Z,50.15
2022-12-15T15:33:32.688Z,46.67
2022-12-15T15:36:01.565Z,53.05
2022-12-15T15:38:31.127Z,53.83
2022-12-15T15:41:18.310Z,48.50
2022-12-15T15:43:45.478Z,45.65
2022-12-15T15:46:18.847Z,50.60
2022-12-15T15:49:01.680Z,51.72
2022-12-15T15:51:30.364Z,46.85
2022-12-15T15:54:01.350Z,44.45
2022-12-15T15:56:30.795Z,47.75
2022-12-15T15:58:59.375Z,57.03
2022-12-15T16:01:26.288Z,44.13
2022-12-15T16:03:53.052Z,43.20
2022-12-15T16:06:21.523Z,46.30
2022-12-15T16:08:53.973Z,45.42
2022-12-15T16:11:22.620Z,47.40
2022-12-15T16:13:49.259Z,47.38
2022-12-15T16:16:19.828Z,40.53
2022-12-15T16:18:46.605Z,47.60
2022-12-15T16:21:14.783Z,47.53
2022-12-15T16:23:46.918Z,43.78
2022-12-15T16:26:16.315Z,45.75
2022-12-15T16:28:42.977Z,52.15
2022-12-15T16:31:15.665Z,43.10
2022-12-15T16:33:42.474Z,39.47
2022-12-15T16:36:15.231Z,43.78
2022-12-15T16:38:42.486Z,44.33
2022-12-15T16:41:15.359Z,47.90
2022-12-15T16:43:47.727Z,43.22
2022-12-15T16:46:15.560Z,44.55
2022-12-15T16:48:43.597Z,44.53
2022-12-15T16:51:27.063Z,43.30
2022-12-15T16:53:53.695Z,48.78
2022-12-15T16:56:20.724Z,43.13
2022-12-15T16:58:48.960Z,45.75
2022-12-15T17:01:19.607Z,42.78
2022-12-15T17:03:47.117Z,43.60
2022-12-15T17:06:15.827Z,46.97
2022-12-15T17:08:44.345Z,44.90
2022-12-15T17:11:22.395Z,49.92
2022-12-15T17:13:51.323Z,48.78
2022-12-15T17:16:19.884Z,41.92
2022-12-15T17:18:47.190Z,37.83
2022-12-15T17:21:18.072Z,37.90
2022-12-15T17:23:48.128Z,44.40
2022-12-15T17:26:29.573Z,45.22
2022-12-15T17:29:01.014Z,45.92
2022-12-15T17:31:34.855Z,43.55
2022-12-15T17:34:08.499Z,40.47
2022-12-15T17:36:35.358Z,63.17
2022-12-15T17:39:02.052Z,44.97
2022-12-15T17:41:58.189Z,48.50
2022-12-15T17:44:34.153Z,43.17
2022-12-15T17:47:05.406Z,44.53
2022-12-15T17:49:36.148Z,51.47
2022-12-15T17:52:08.077Z,58.88
2022-12-15T17:54:35.675Z,51.70
2022-12-15T17:57:02.362Z,56.80
2022-12-15T17:59:29.086Z,51.35
2022-12-15T18:01:57.284Z,77.38
2022-12-15T18:04:24.222Z,57.53
2022-12-15T18:06:50.950Z,57.05
2022-12-15T18:09:19.561Z,56.08
2022-12-15T18:11:46.876Z,52.60
2022-12-15T18:14:15.875Z,51.25
2022-12-15T18:16:42.858Z,61.75
2022-12-15T18:19:09.678Z,57.58
2022-12-15T18:21:36.740Z,55.53
2022-12-15T18:24:04.121Z,57.22
2022-12-15T18:26:37.719Z,55.88
2022-12-15T18:29:17.712Z,43.28
2022-12-15T18:31:46.778Z,65.47
2022-12-15T18:34:16.154Z,62.00
2022-12-15T18:36:42.992Z,66.85
2022-12-15T18:39:23.440Z,65.35
2022-12-15T18:41:51.644Z,61.53
2022-12-15T18:44:26.651Z,58.95
2022-12-15T18:46:55.166Z,65.63
2022-12-15T18:49:22.554Z,44.35
2022-12-15T18:51:49.479Z,50.47
2022-12-15T18:54:22.775Z,63.53
2022-12-15T18:56:50.297Z,61.40
2022-12-15T18:59:18.822Z,65.20
2022-12-15T19:01:47.148Z,65.10
2022-12-15T19:04:14.319Z,68.03
2022-12-15T19:06:42.812Z,53.83
2022-12-15T19:09:18.586Z,55.58
2022-12-15T19:12:05.725Z,67.03
2022-12-15T19:14:42.506Z,76.15
2022-12-15T19:17:30.011Z,57.95
2022-12-15T19:20:15.453Z,74.97
2022-12-15T19:22:42.875Z,101.90
2022-12-15T19:25:25.115Z,80.80
2022-12-15T19:27:58.553Z,70.30
2022-12-15T19:30:29.130Z,70.22
2022-12-15T19:32:56.434Z,62.45
2022-12-15T19:35:23.209Z,65.78
2022-12-15T19:37:50.223Z,60.88
2022-12-15T19:40:20.882Z,73.03
2022-12-15T19:42:48.587Z,71.72
2022-12-15T19:45:20.686Z,73.03
2022-12-15T19:47:48.069Z,72.80
2022-12-15T19:50:17.044Z,63.30
2022-12-15T19:52:48.620Z,74.45
2022-12-15T19:55:17.163Z,85.95
2022-12-15T19:57:44.611Z,63.35
2022-12-15T20:00:21.685Z,74.75
2022-12-15T20:02:54.938Z,68.57
2022-12-15T20:05:23.270Z,72.45
2022-12-15T20:07:52.279Z,61.55
2022-12-15T20:10:31.842Z,65.05
2022-12-15T20:13:00.587Z,58.15
2022-12-15T20:15:27.570Z,66.10
2022-12-15T20:17:57.728Z,64.82
2022-12-15T20:20:27.618Z,68.65
2022-12-15T20:22:59.834Z,61.78
2022-12-15T20:25:31.852Z,47.33
2022-12-15T20:28:00.574Z,55.20
2022-12-15T20:30:33.416Z,68.82
2022-12-15T20:33:01.625Z,67.63
2022-12-15T20:35:29.136Z,82.35
2022-12-15T20:37:55.887Z,61.40
2022-12-15T20:40:31.746Z,55.17
2022-12-15T20:42:58.432Z,58.90
2022-12-15T20:45:26.806Z,70.35
2022-12-15T20:47:55.787Z,52.63
2022-12-15T20:50:27.485Z,64.57
2022-12-15T20:52:55.272Z,71.30
2022-12-15T20:55:22.027Z,73.80
2022-12-15T20:57:49.005Z,63.63
2022-12-15T21:00:18.118Z,73.80
2022-12-15T21:02:46.575Z,66.22
2022-12-15T21:05:22.387Z,76.30
2022-12-15T21:07:49.745Z,65.53
2022-12-15T21:10:18.486Z,73.10
2022-12-15T21:12:48.386Z,61.33
2022-12-15T21:15:23.070Z,66.70
2022-12-15T21:18:08.836Z,62.90
2022-12-15T21:20:45.256Z,56.10
2022-12-15T21:23:24.946Z,59.70
2022-12-15T21:25:52.380Z,69.85
2022-12-15T21:28:20.664Z,76.68
2022-12-15T21:30:48.049Z,86.78
2022-12-15T21:33:15.359Z,91.38
2022-12-15T21:35:46.003Z,54.00
2022-12-15T21:38:28.379Z,78.95
2022-12-15T21:41:00.574Z,82.32
2022-12-15T21:43:30.901Z,89.45
2022-12-15T21:45:58.860Z,92.15
2022-12-15T21:48:44.060Z,93.97
2022-12-15T21:51:14.010Z,86.45
2022-12-15T21:53:40.820Z,100.05
2022-12-15T21:56:18.186Z,93.32
2022-12-15T21:58:46.306Z,87.28
2022-12-15T22:01:15.168Z,75.55
2022-12-15T22:03:57.530Z,92.32
2022-12-15T22:06:27.253Z,102.43
2022-12-15T22:08:58.645Z,81.97
2022-12-15T22:11:31.360Z,86.18
2022-12-15T22:14:01.836Z,96.10
2022-12-15T22:16:29.816Z,89.53
2022-12-15T22:18:58.255Z,76.05
2022-12-15T22:21:25.655Z,71.10
2022-12-15T22:23:52.602Z,78.47
2022-12-15T22:26:24.774Z,66.13
2022-12-15T22:28:51.786Z,86.75
2022-12-15T22:31:18.765Z,76.07
2022-12-15T22:33:45.618Z,81.55
2022-12-15T22:36:12.367Z,54.45
2022-12-15T22:38:39.055Z,71.70
2022-12-15T22:41:13.145Z,70.47
2022-12-15T22:43:43.214Z,65.65
2022-12-15T22:46:13.569Z,60.45
2022-12-15T22:48:43.641Z,64.88
2022-12-15T22:51:13.691Z,60.78
2022-12-15T22:53:40.394Z,58.60
2022-12-15T22:56:21.856Z,57.78
2022-12-15T22:58:55.724Z,58.90
2022-12-15T23:01:22.424Z,47.45
2022-12-15T23:03:51.447Z,65.75
2022-12-15T23:06:18.818Z,74.15
2022-12-15T23:08:45.469Z,76.22
2022-12-15T23:11:30.736Z,69.88
2022-12-15T23:13:57.451Z,75.00
2022-12-15T23:16:25.210Z,77.00
2022-12-15T23:19:02.581Z,80.57
2022-12-15T23:21:29.457Z,77.20
2022-12-15T23:23:56.279Z,57.22
2022-12-15T23:26:23.971Z,74.65
2022-12-15T23:28:50.844Z,67.88
2022-12-15T23:31:17.993Z,65.97
2022-12-15T23:33:45.232Z,68.28
2022-12-15T23:36:12.453Z,68.05
2022-12-15T23:38:39.746Z,68.75
2022-12-15T23:41:06.974Z,63.95
2022-12-15T23:43:35.981Z,57.92
2022-12-15T23:46:07.623Z,64.70
2022-12-15T23:48:40.666Z,58.78
2022-12-15T23:51:10.863Z,59.65
2022-12-15T23:53:39.025Z,55.80
2022-12-15T23:56:08.402Z,58.60
2022-12-15T23:58:35.671Z,73.45
